Time;durP1;ratioP1;P1;durP2;ratioP2;P2;SDS_P1;SDS_P2;PMS_P1;PMS_P2;Temp;Humidity;BMP_temperature;BMP_pressure;BME280_temperature;BME280_humidity;BME280_pressure;Samples;Min_cycle;Max_cycle;Signal;HPM_P1;HPM_P2
2022/07/30 00:00:42;;;;;;;2.42;1.20;;;25.50;47.10;;;;;;5009950;28;20057;-51
2022/07/30 00:03:07;;;;;;;3.10;1.00;;;25.50;47.10;;;;;;5012687;28;20025;-51
2022/07/30 00:05:33;;;;;;;1.83;1.00;;;25.40;47.20;;;;;;5012550;28;20350;-50
2022/07/30 00:07:59;;;;;;;1.40;1.00;;;25.50;47.30;;;;;;5013187;28;20045;-54
2022/07/30 00:10:26;;;;;;;1.88;1.10;;;25.40;47.30;;;;;;5013946;28;20104;-53
2022/07/30 00:12:52;;;;;;;2.38;1.00;;;25.40;47.30;;;;;;5013133;28;20036;-52
2022/07/30 00:15:18;;;;;;;2.45;1.30;;;25.40;47.40;;;;;;5011645;28;20361;-51
2022/07/30 00:17:44;;;;;;;2.28;1.17;;;25.40;47.50;;;;;;5013651;28;20464;-51
2022/07/30 00:20:10;;;;;;;1.83;1.05;;;25.40;47.50;;;;;;5012938;28;20057;-54
2022/07/30 00:22:35;;;;;;;3.00;1.13;;;25.40;47.60;;;;;;5014315;28;20037;-50
2022/07/30 00:25:01;;;;;;;1.92;1.17;;;25.40;47.70;;;;;;5012294;28;20099;-55
2022/07/30 00:27:29;;;;;;;2.33;1.30;;;25.40;47.30;;;;;;5011039;28;20114;-50
2022/07/30 00:29:55;;;;;;;1.95;1.10;;;25.40;47.90;;;;;;5011886;28;20065;-51
2022/07/30 00:32:20;;;;;;;1.50;0.93;;;25.40;47.90;;;;;;5012512;28;20076;-51
2022/07/30 00:34:46;;;;;;;1.80;1.02;;;25.40;47.90;;;;;;5012015;28;20104;-56
2022/07/30 00:37:12;;;;;;;2.53;1.10;;;25.40;48.00;;;;;;5012000;28;20044;-51
2022/07/30 00:39:38;;;;;;;2.72;1.30;;;25.40;48.00;;;;;;5012669;28;20022;-53
2022/07/30 00:42:04;;;;;;;1.98;1.13;;;25.40;48.10;;;;;;5012937;28;20464;-54
2022/07/30 00:44:30;;;;;;;2.70;1.42;;;25.40;48.10;;;;;;5012232;28;20037;-55
2022/07/30 00:46:56;;;;;;;2.28;1.10;;;25.40;48.20;;;;;;5011247;28;20026;-50
2022/07/30 00:49:22;;;;;;;2.58;1.48;;;25.30;48.20;;;;;;5011027;28;20197;-52
2022/07/30 00:51:49;;;;;;;2.95;1.13;;;25.40;48.30;;;;;;5014172;28;20030;-50
2022/07/30 00:54:15;;;;;;;2.15;1.27;;;25.30;48.30;;;;;;5000745;28;20042;-52
2022/07/30 00:56:42;;;;;;;2.28;1.20;;;25.30;48.30;;;;;;5010793;28;20026;-53
2022/07/30 00:59:08;;;;;;;1.77;1.20;;;25.30;48.40;;;;;;5011531;28;20037;-51
2022/07/30 01:01:34;;;;;;;1.92;1.08;;;25.30;48.40;;;;;;5012442;28;20383;-53
2022/07/30 01:04:00;;;;;;;1.95;1.10;;;25.30;48.40;;;;;;5012687;28;20033;-52
2022/07/30 01:06:26;;;;;;;2.15;1.23;;;25.30;48.60;;;;;;5011957;28;20065;-50
2022/07/30 01:08:53;;;;;;;1.80;1.23;;;25.30;48.60;;;;;;5010122;28;20049;-48
2022/07/30 01:11:19;;;;;;;1.70;1.15;;;25.30;48.60;;;;;;5011144;28;20022;-50
2022/07/30 01:13:45;;;;;;;2.13;1.05;;;25.30;48.60;;;;;;5012459;28;20044;-52
2022/07/30 01:16:12;;;;;;;1.80;1.20;;;25.30;48.60;;;;;;5011206;28;20029;-55
2022/07/30 01:21:37;;;;;;;1.55;1.05;;;25.30;48.60;;;;;;5011791;28;20426;-52
2022/07/30 01:24:16;;;;;;;2.00;1.00;;;25.30;48.60;;;;;;5009685;28;20046;-50
2022/07/30 01:26:42;;;;;;;3.70;1.30;;;25.30;48.60;;;;;;5011543;28;20026;-52
2022/07/30 01:29:12;;;;;;;1.50;1.00;;;25.20;48.60;;;;;;5011757;28;20112;-50
2022/07/30 01:31:38;;;;;;;1.90;1.10;;;25.20;48.70;;;;;;5010583;28;20030;-52
2022/07/30 01:34:05;;;;;;;2.33;1.17;;;25.20;48.70;;;;;;5011043;28;20120;-51
2022/07/30 01:36:31;;;;;;;2.17;1.20;;;25.20;48.70;;;;;;5010639;28;20080;-50
2022/07/30 01:38:58;;;;;;;2.22;1.17;;;25.20;48.70;;;;;;5012126;28;20026;-54
2022/07/30 01:41:25;;;;;;;2.55;1.30;;;25.20;48.80;;;;;;5008411;28;20471;-56
2022/07/30 01:43:52;;;;;;;2.10;1.23;;;25.20;48.80;;;;;;5010500;28;20042;-52
2022/07/30 01:46:18;;;;;;;2.15;1.00;;;25.20;48.80;;;;;;5011677;28;20095;-52
2022/07/30 01:48:47;;;;;;;2.38;1.48;;;25.20;48.80;;;;;;4999517;28;20027;-54
2022/07/30 01:51:17;;;;;;;2.50;1.10;;;25.20;48.80;;;;;;5003294;28;20037;-51
2022/07/30 01:53:49;;;;;;;1.55;1.17;;;25.10;48.80;;;;;;5008240;28;20061;-53
2022/07/30 01:56:20;;;;;;;1.40;0.90;;;25.20;48.90;;;;;;5009394;28;20025;-52
2022/07/30 01:58:48;;;;;;;2.97;1.10;;;25.20;48.90;;;;;;5010501;28;20022;-57
2022/07/30 02:01:23;;;;;;;2.13;1.20;;;25.10;48.90;;;;;;5010650;28;20050;-55
2022/07/30 02:03:52;;;;;;;1.17;1.00;;;25.20;49.00;;;;;;5009615;28;20109;-54
2022/07/30 02:06:29;;;;;;;1.83;1.30;;;25.10;48.90;;;;;;5010162;28;20530;-55
2022/07/30 02:09:00;;;;;;;2.80;1.23;;;25.10;49.00;;;;;;5007232;28;20331;-52
2022/07/30 02:14:32;;;;;;;2.88;1.38;;;25.10;49.10;;;;;;4997812;28;20516;-53
2022/07/30 02:17:01;;;;;;;1.52;1.15;;;25.10;49.10;;;;;;5009812;28;20440;-54
2022/07/30 02:19:42;;;;;;;4.18;1.23;;;25.10;49.20;;;;;;4997589;28;20080;-54
2022/07/30 02:22:13;;;;;;;2.03;1.20;;;25.10;49.20;;;;;;5009390;28;20460;-52
2022/07/30 02:24:41;;;;;;;1.73;1.40;;;25.10;49.30;;;;;;5010194;28;20481;-52
2022/07/30 02:27:14;;;;;;;1.92;1.38;;;25.10;49.30;;;;;;5010502;28;20029;-57
2022/07/30 02:29:43;;;;;;;1.88;1.20;;;25.10;49.30;;;;;;5007122;28;20034;-54
2022/07/30 02:32:14;;;;;;;1.20;0.85;;;25.10;49.30;;;;;;5009995;28;20026;-54
2022/07/30 02:34:43;;;;;;;2.85;1.35;;;25.10;49.30;;;;;;5009799;28;20038;-47
2022/07/30 02:37:11;;;;;;;2.60;1.20;;;25.10;49.40;;;;;;5010304;28;20100;-54
2022/07/30 02:39:38;;;;;;;2.75;1.60;;;25.10;49.50;;;;;;5008863;28;20040;-51
2022/07/30 02:42:06;;;;;;;3.85;1.48;;;25.10;49.50;;;;;;5011081;28;20041;-50
2022/07/30 02:44:34;;;;;;;2.10;1.42;;;25.10;49.50;;;;;;5008991;28;20038;-53
2022/07/30 02:47:01;;;;;;;1.70;1.20;;;25.10;49.50;;;;;;5010196;28;20108;-56
2022/07/30 02:49:30;;;;;;;2.67;1.60;;;25.10;49.60;;;;;;5009740;28;20112;-52
2022/07/30 02:51:58;;;;;;;1.55;1.20;;;25.00;49.50;;;;;;4997566;28;20034;-53
2022/07/30 02:54:26;;;;;;;1.98;1.33;;;25.10;49.60;;;;;;5009042;28;20132;-52
2022/07/30 02:56:54;;;;;;;2.05;1.42;;;25.00;49.50;;;;;;5010110;28;20026;-55
2022/07/30 02:59:22;;;;;;;1.88;1.27;;;25.00;49.60;;;;;;5009545;28;20465;-51
2022/07/30 03:01:50;;;;;;;2.28;1.40;;;25.00;49.60;;;;;;4997730;28;20038;-53
2022/07/30 03:04:20;;;;;;;2.58;1.30;;;25.00;49.60;;;;;;5009369;28;20042;-51
2022/07/30 03:06:48;;;;;;;2.65;1.42;;;25.00;49.70;;;;;;5008892;28;20414;-50
2022/07/30 03:09:16;;;;;;;1.30;1.10;;;25.00;49.70;;;;;;5010105;28;20040;-54
2022/07/30 03:11:43;;;;;;;2.25;1.27;;;25.00;49.70;;;;;;5008240;28;20381;-56
2022/07/30 03:14:11;;;;;;;2.38;1.35;;;25.00;49.70;;;;;;5010727;28;20040;-52
2022/07/30 03:16:38;;;;;;;1.58;1.13;;;25.00;49.70;;;;;;5010164;28;20030;-54
2022/07/30 03:19:10;;;;;;;2.78;1.40;;;25.00;49.70;;;;;;5010206;28;20026;-53
2022/07/30 03:21:38;;;;;;;2.35;1.40;;;25.00;49.70;;;;;;5008309;28;20042;-53
2022/07/30 03:24:06;;;;;;;2.00;1.15;;;25.00;49.80;;;;;;5009822;28;20115;-52
2022/07/30 03:26:33;;;;;;;2.53;1.30;;;25.00;49.80;;;;;;4993869;28;20370;-53
2022/07/30 03:29:01;;;;;;;2.10;1.30;;;25.00;49.80;;;;;;4997187;28;20030;-53
2022/07/30 03:31:28;;;;;;;1.35;1.08;;;25.00;49.80;;;;;;4999101;28;20042;-51
2022/07/30 03:33:55;;;;;;;1.52;1.08;;;25.00;49.80;;;;;;5010520;28;20045;-52
2022/07/30 03:36:21;;;;;;;2.10;1.10;;;25.00;49.80;;;;;;5014522;28;20441;-56
2022/07/30 03:38:47;;;;;;;2.03;1.20;;;25.00;49.80;;;;;;5027191;28;20092;-54
2022/07/30 03:41:15;;;;;;;2.30;1.20;;;25.00;49.90;;;;;;5028151;28;20029;-53
2022/07/30 03:43:44;;;;;;;2.05;1.25;;;25.00;49.90;;;;;;5001458;28;20572;-54
2022/07/30 03:46:12;;;;;;;2.55;1.55;;;24.90;49.90;;;;;;5012673;28;20052;-51
2022/07/30 03:48:42;;;;;;;1.60;1.15;;;24.90;49.90;;;;;;5012803;28;20517;-54
2022/07/30 03:51:09;;;;;;;2.50;1.33;;;24.90;49.90;;;;;;5012226;28;20457;-54
2022/07/30 03:53:40;;;;;;;3.35;1.48;;;24.90;49.90;;;;;;5011666;28;20052;-53
2022/07/30 03:56:36;;;;;;;2.75;1.30;;;24.90;50.00;;;;;;5013637;28;20052;-51
2022/07/30 03:59:02;;;;;;;3.25;1.08;;;24.90;50.10;;;;;;5014186;28;20034;-50
2022/07/30 04:01:28;;;;;;;1.50;1.20;;;24.90;50.10;;;;;;5028209;28;20029;-54
2022/07/30 04:04:09;;;;;;;1.80;1.05;;;24.90;50.20;;;;;;5012869;28;20034;-51
2022/07/30 04:06:39;;;;;;;2.28;1.13;;;24.90;50.20;;;;;;5012190;28;20048;-51
2022/07/30 04:09:11;;;;;;;2.67;0.90;;;24.90;50.30;;;;;;5010582;28;20018;-54
2022/07/30 04:11:38;;;;;;;2.55;1.20;;;24.90;50.30;;;;;;5012929;28;20037;-51
2022/07/30 04:14:08;;;;;;;1.70;1.30;;;24.90;50.30;;;;;;5012878;28;20384;-56
2022/07/30 04:16:50;;;;;;;2.25;1.25;;;24.90;50.40;;;;;;5005336;28;20040;-50
2022/07/30 04:19:35;;;;;;;3.60;1.10;;;24.90;50.40;;;;;;5012563;28;20036;-55
2022/07/30 04:22:02;;;;;;;2.63;1.25;;;24.90;50.30;;;;;;5013168;28;20340;-55
2022/07/30 04:24:31;;;;;;;2.47;1.02;;;24.90;50.40;;;;;;5010442;28;20119;-52
2022/07/30 04:27:00;;;;;;;2.13;1.40;;;24.80;50.30;;;;;;5005528;28;20049;-53
2022/07/30 04:29:26;;;;;;;2.13;1.10;;;24.80;50.30;;;;;;5011700;28;20092;-54
2022/07/30 04:31:54;;;;;;;3.28;1.10;;;24.80;50.40;;;;;;5011342;28;20441;-52
2022/07/30 04:34:45;;;;;;;;;;;24.90;50.40;;;;;;5013200;28;20444;-51
2022/07/30 04:37:11;;;;;;;1.85;1.20;;;24.90;50.40;;;;;;5010708;28;19917;-53
2022/07/30 04:39:37;;;;;;;2.08;1.08;;;24.80;50.40;;;;;;4997223;28;20026;-51
2022/07/30 04:42:02;;;;;;;2.35;1.10;;;24.80;50.40;;;;;;5011136;28;20091;-50
2022/07/30 04:44:33;;;;;;;1.90;1.08;;;24.80;50.40;;;;;;5011564;28;20468;-54
2022/07/30 04:47:22;;;;;;;3.17;1.20;;;24.80;50.40;;;;;;5011305;28;20132;-53
2022/07/30 04:50:06;;;;;;;2.25;1.42;;;24.80;50.40;;;;;;5011947;28;20422;-53
2022/07/30 04:52:33;;;;;;;2.28;1.00;;;24.80;50.40;;;;;;5012552;28;20068;-51
2022/07/30 04:55:03;;;;;;;1.38;1.00;;;24.80;50.40;;;;;;5027187;28;20374;-49
2022/07/30 04:57:30;;;;;;;1.75;1.00;;;24.80;50.50;;;;;;5012124;28;20449;-56
2022/07/30 04:59:59;;;;;;;1.73;1.15;;;24.80;50.50;;;;;;5002781;28;20081;-51
2022/07/30 05:02:29;;;;;;;1.85;1.10;;;24.80;50.50;;;;;;5011995;28;20032;-55
2022/07/30 05:04:57;;;;;;;2.67;1.13;;;24.80;50.50;;;;;;4998878;28;20130;-54
2022/07/30 05:07:25;;;;;;;2.90;1.00;;;24.80;50.50;;;;;;5010572;28;20361;-53
2022/07/30 05:09:51;;;;;;;2.05;1.02;;;24.80;50.50;;;;;;5011382;28;20041;-52
2022/07/30 05:12:17;;;;;;;2.08;1.20;;;24.80;50.60;;;;;;5012240;28;20048;-51
2022/07/30 05:14:43;;;;;;;3.47;1.27;;;24.80;50.60;;;;;;5000588;28;20455;-49
2022/07/30 05:17:09;;;;;;;2.83;1.02;;;24.80;50.60;;;;;;5010502;28;20045;-55
2022/07/30 05:19:35;;;;;;;2.35;0.98;;;24.80;50.60;;;;;;5009367;28;20026;-49
2022/07/30 05:22:01;;;;;;;2.65;1.20;;;24.80;50.60;;;;;;5011142;28;20034;-50
2022/07/30 05:24:29;;;;;;;2.20;1.00;;;24.80;50.60;;;;;;5011493;28;20038;-52
2022/07/30 05:26:56;;;;;;;2.90;1.00;;;24.80;50.60;;;;;;5009308;28;20026;-49
2022/07/30 05:29:24;;;;;;;2.95;1.10;;;24.80;50.60;;;;;;5012524;28;20148;-52
2022/07/30 05:31:55;;;;;;;2.72;1.25;;;24.80;50.60;;;;;;5010382;28;21694;-53
2022/07/30 05:34:21;;;;;;;2.72;1.17;;;24.80;50.70;;;;;;4999080;28;20043;-53
2022/07/30 05:36:47;;;;;;;3.47;1.20;;;24.80;50.60;;;;;;5010813;28;20030;-55
2022/07/30 05:39:16;;;;;;;2.60;1.20;;;24.80;50.60;;;;;;5010896;28;20497;-47
2022/07/30 05:42:02;;;;;;;2.85;1.10;;;24.80;50.60;;;;;;5010300;28;20938;-55
2022/07/30 05:44:34;;;;;;;4.47;1.20;;;24.80;50.60;;;;;;5026219;28;20042;-50
2022/07/30 05:47:00;;;;;;;2.13;0.88;;;24.80;50.60;;;;;;5009708;28;20037;-50
2022/07/30 05:49:26;;;;;;;4.82;1.42;;;24.80;50.70;;;;;;5010792;28;20874;-56
2022/07/30 05:51:59;;;;;;;3.42;1.20;;;24.80;50.60;;;;;;5024685;28;20435;-53
2022/07/30 05:54:25;;;;;;;2.13;1.00;;;24.80;50.60;;;;;;5010576;28;20045;-52
2022/07/30 05:57:09;;;;;;;2.35;1.02;;;24.80;50.60;;;;;;5011371;28;20057;-52
2022/07/30 05:59:38;;;;;;;2.33;1.10;;;24.80;50.60;;;;;;5007022;28;20030;-51
2022/07/30 06:02:07;;;;;;;1.92;1.20;;;24.80;50.60;;;;;;5009070;28;20116;-55
2022/07/30 06:04:56;;;;;;;1.90;1.10;;;24.80;50.60;;;;;;5010137;28;20434;-51
2022/07/30 06:07:22;;;;;;;2.30;1.08;;;24.80;50.60;;;;;;5010198;28;20058;-53
2022/07/30 06:09:50;;;;;;;2.42;1.13;;;24.80;50.60;;;;;;5003452;28;20034;-54
2022/07/30 06:12:15;;;;;;;2.25;0.90;;;24.80;50.60;;;;;;5010170;28;20083;-52
2022/07/30 06:14:42;;;;;;;3.47;0.85;;;24.80;50.60;;;;;;5010600;28;20453;-52
2022/07/30 06:17:11;;;;;;;3.33;1.08;;;24.80;50.60;;;;;;4997098;28;20045;-53
2022/07/30 06:20:09;;;;;;;2.55;1.33;;;24.80;50.60;;;;;;5010322;28;20095;-54
2022/07/30 06:22:47;;;;;;;3.15;0.85;;;24.80;50.60;;;;;;5010400;28;20026;-51
2022/07/30 06:25:21;;;;;;;3.27;1.20;;;24.80;50.60;;;;;;5014920;28;20052;-52
2022/07/30 06:27:47;;;;;;;4.43;1.38;;;24.80;50.60;;;;;;5013922;28;20511;-55
2022/07/30 06:30:13;;;;;;;4.15;1.30;;;24.80;50.60;;;;;;5014618;28;20026;-54
2022/07/30 06:32:42;;;;;;;2.30;1.00;;;24.80;50.60;;;;;;5010936;28;20072;-57
2022/07/30 06:35:08;;;;;;;3.50;1.30;;;24.80;50.60;;;;;;5008508;28;20353;-54
2022/07/30 06:37:34;;;;;;;3.00;1.20;;;24.80;50.50;;;;;;5009333;28;20160;-54
2022/07/30 06:40:03;;;;;;;3.15;1.10;;;24.80;50.50;;;;;;5005062;28;20025;-53
2022/07/30 06:42:52;;;;;;;3.88;1.15;;;24.80;50.50;;;;;;5010436;28;20444;-52
2022/07/30 06:45:38;;;;;;;2.50;1.15;;;24.80;50.50;;;;;;4988017;28;20376;-56
2022/07/30 06:48:29;;;;;;;3.47;1.30;;;24.80;50.40;;;;;;5005538;28;20034;-52
2022/07/30 06:50:58;;;;;;;2.83;1.00;;;24.80;50.40;;;;;;5008274;28;20037;-53
2022/07/30 06:53:24;;;;;;;2.85;1.08;;;24.80;50.30;;;;;;5009667;28;20025;-52
2022/07/30 06:56:20;;;;;;;2.47;1.10;;;24.80;50.30;;;;;;5000765;28;20048;-54
2022/07/30 06:58:59;;;;;;;3.70;1.02;;;24.80;50.30;;;;;;5008724;28;20029;-52
2022/07/30 07:01:44;;;;;;;1.73;1.13;;;24.80;50.20;;;;;;5014713;28;20491;-57
2022/07/30 07:04:11;;;;;;;2.58;1.00;;;24.80;50.20;;;;;;5007114;28;20052;-55
2022/07/30 07:06:38;;;;;;;1.88;0.85;;;24.80;50.20;;;;;;5004450;28;20038;-53
2022/07/30 07:09:05;;;;;;;2.20;0.90;;;24.80;50.80;;;;;;5010329;28;20109;-51
2022/07/30 07:11:40;;;;;;;2.38;0.95;;;24.80;50.10;;;;;;5010229;28;20033;-53
2022/07/30 07:14:10;;;;;;;2.03;0.80;;;24.90;50.10;;;;;;5009751;28;20037;-55
2022/07/30 07:16:35;;;;;;;2.80;0.90;;;24.90;50.10;;;;;;5005858;28;20034;-55
2022/07/30 07:19:33;;;;;;;2.10;1.10;;;24.90;50.00;;;;;;4987670;28;20038;-55
2022/07/30 07:21:59;;;;;;;1.63;0.88;;;24.90;49.90;;;;;;5007965;28;20445;-54
2022/07/30 07:24:25;;;;;;;2.35;1.23;;;24.90;49.80;;;;;;5009687;28;20095;-58
2022/07/30 07:26:55;;;;;;;2.03;0.73;;;25.00;49.70;;;;;;5008403;28;20129;-55
2022/07/30 07:29:21;;;;;;;1.08;0.70;;;25.00;49.70;;;;;;5007627;28;20194;-52
2022/07/30 07:31:47;;;;;;;2.67;1.25;;;25.00;49.60;;;;;;5014173;28;20192;-54
2022/07/30 07:34:13;;;;;;;2.33;0.95;;;25.00;49.50;;;;;;5010953;28;20500;-52
2022/07/30 07:36:39;;;;;;;2.08;0.70;;;25.00;49.50;;;;;;5013178;28;20030;-56
2022/07/30 07:39:08;;;;;;;2.70;1.17;;;25.00;49.40;;;;;;5013900;28;20056;-51
2022/07/30 07:41:36;;;;;;;1.80;0.90;;;25.00;49.30;;;;;;5012962;28;20084;-52
2022/07/30 07:44:04;;;;;;;1.75;0.90;;;25.00;49.70;;;;;;5012628;28;20053;-54
2022/07/30 07:46:32;;;;;;;1.98;1.00;;;25.10;49.00;;;;;;5006527;28;20353;-58
2022/07/30 07:48:59;;;;;;;1.35;0.80;;;25.10;48.80;;;;;;5006518;28;20022;-53
2022/07/30 07:51:35;;;;;;;2.70;0.88;;;25.10;48.70;;;;;;5007718;28;20038;-54
2022/07/30 07:54:02;;;;;;;1.88;0.70;;;25.10;48.50;;;;;;5003708;28;20184;-55
2022/07/30 07:56:28;;;;;;;1.02;0.63;;;25.10;48.40;;;;;;5010331;28;20108;-55
2022/07/30 07:58:54;;;;;;;2.92;0.90;;;25.10;48.40;;;;;;5009717;28;20453;-54
2022/07/30 08:01:21;;;;;;;1.73;1.05;;;25.10;48.40;;;;;;5008191;28;20388;-55
2022/07/30 08:04:05;;;;;;;;;;;25.10;48.30;;;;;;5008952;28;20388;-54
2022/07/30 08:07:10;;;;;;;1.33;0.80;;;25.10;48.20;;;;;;4948572;29;19920;-53
2022/07/30 08:09:47;;;;;;;2.15;0.93;;;25.10;48.10;;;;;;4948912;29;20137;-54
2022/07/30 08:12:23;;;;;;;4.20;1.00;;;25.10;48.00;;;;;;4987039;28;20457;-52
2022/07/30 08:15:02;;;;;;;3.53;1.27;;;25.10;48.20;;;;;;5009259;28;20033;-56
2022/07/30 08:17:48;;;;;;;1.90;0.98;;;25.10;48.20;;;;;;5010592;28;20099;-51
2022/07/30 08:20:17;;;;;;;2.15;0.80;;;25.10;48.10;;;;;;5006826;28;20026;-53
2022/07/30 08:22:43;;;;;;;2.13;0.93;;;25.10;48.00;;;;;;5012203;28;20113;-55
2022/07/30 08:25:09;;;;;;;2.83;1.25;;;25.10;47.90;;;;;;5011821;28;20034;-54
2022/07/30 08:27:35;;;;;;;3.55;1.13;;;25.20;47.90;;;;;;5011599;28;20088;-54
2022/07/30 08:30:03;;;;;;;1.73;0.75;;;25.20;47.80;;;;;;5011148;28;20037;-54
2022/07/30 08:32:29;;;;;;;2.30;1.13;;;25.20;47.70;;;;;;5013154;28;20437;-50
2022/07/30 08:34:57;;;;;;;3.72;0.77;;;25.20;47.60;;;;;;5012182;28;20029;-54
2022/07/30 08:37:23;;;;;;;1.73;0.63;;;25.20;47.50;;;;;;5012648;28;20026;-55
2022/07/30 08:39:49;;;;;;;1.58;0.95;;;25.20;47.30;;;;;;5012550;28;20026;-50
2022/07/30 08:42:15;;;;;;;1.95;1.10;;;25.20;47.10;;;;;;5016752;28;20084;-53
2022/07/30 08:44:44;;;;;;;1.27;0.80;;;25.20;47.00;;;;;;5016817;28;20424;-55
2022/07/30 08:47:13;;;;;;;1.45;0.93;;;25.20;46.80;;;;;;5016142;28;20030;-54
2022/07/30 08:50:04;;;;;;;1.60;0.93;;;25.20;46.60;;;;;;5017484;28;20045;-54
2022/07/30 08:52:33;;;;;;;1.83;0.90;;;25.20;46.50;;;;;;5016220;28;20041;-52
2022/07/30 08:55:00;;;;;;;2.45;0.75;;;25.30;46.50;;;;;;5016589;28;20409;-54
2022/07/30 08:57:31;;;;;;;2.33;0.95;;;25.20;46.40;;;;;;5015063;28;20473;-55
2022/07/30 08:59:58;;;;;;;1.63;0.80;;;25.30;46.40;;;;;;5016860;28;20076;-53
2022/07/30 09:02:28;;;;;;;1.80;0.85;;;25.30;46.40;;;;;;5017165;28;20069;-51
2022/07/30 09:05:12;;;;;;;2.03;0.98;;;25.30;46.10;;;;;;5016850;28;20449;-55
2022/07/30 09:07:38;;;;;;;1.38;0.80;;;25.30;45.90;;;;;;5016062;28;20036;-53
2022/07/30 09:10:09;;;;;;;2.45;0.75;;;25.30;45.70;;;;;;5016073;28;20088;-52
2022/07/30 09:12:43;;;;;;;2.17;0.70;;;25.30;45.60;;;;;;5004789;28;20446;-57
2022/07/30 09:15:15;;;;;;;0.60;0.60;;;25.30;45.60;;;;;;5012748;28;20033;-51
2022/07/30 09:17:59;;;;;;;1.45;0.73;;;25.30;45.50;;;;;;5028233;28;20116;-57
2022/07/30 09:20:32;;;;;;;1.27;0.77;;;25.30;45.40;;;;;;5035674;28;20087;-54
2022/07/30 09:23:01;;;;;;;1.48;0.80;;;25.30;45.40;;;;;;5035574;28;20040;-56
2022/07/30 09:25:58;;;;;;;1.50;0.70;;;25.30;45.40;;;;;;4987446;28;20103;-50
2022/07/30 09:28:42;;;;;;;1.85;0.85;;;25.30;45.30;;;;;;5016047;28;20042;-54
2022/07/30 09:31:15;;;;;;;1.10;0.63;;;25.30;45.20;;;;;;5016718;28;20034;-57
2022/07/30 09:33:59;;;;;;;1.17;0.47;;;25.30;45.00;;;;;;5016488;28;20052;-56
2022/07/30 09:36:43;;;;;;;1.50;0.80;;;25.30;44.80;;;;;;5016000;28;20127;-57
2022/07/30 09:39:27;;;;;;;0.85;0.52;;;25.30;44.60;;;;;;5016348;28;20080;-57
2022/07/30 09:42:24;;;;;;;1.00;0.50;;;25.30;44.50;;;;;;5014848;28;20117;-56
2022/07/30 09:45:11;;;;;;;1.23;0.73;;;25.30;44.30;;;;;;5014831;28;20037;-53
2022/07/30 09:47:47;;;;;;;1.15;0.75;;;25.30;44.30;;;;;;5015137;28;20034;-53
2022/07/30 09:50:16;;;;;;;2.13;1.00;;;25.30;44.20;;;;;;5014935;28;20449;-54
2022/07/30 09:52:43;;;;;;;1.08;0.70;;;25.30;44.20;;;;;;5015690;28;20044;-54
2022/07/30 09:55:10;;;;;;;1.33;0.65;;;25.30;44.00;;;;;;5014405;28;20053;-53
2022/07/30 09:57:57;;;;;;;1.10;0.60;;;25.30;43.90;;;;;;5013551;28;20044;-57
2022/07/30 10:00:25;;;;;;;1.05;0.73;;;25.30;43.60;;;;;;5015044;28;20049;-56
2022/07/30 10:03:19;;;;;;;1.25;0.75;;;25.30;43.60;;;;;;4982044;28;20038;-50
2022/07/30 10:06:03;;;;;;;1.35;0.65;;;25.30;43.50;;;;;;5015377;28;20072;-56
2022/07/30 10:08:38;;;;;;;2.33;0.70;;;25.30;43.50;;;;;;5007132;28;20083;-57
2022/07/30 10:11:04;;;;;;;0.77;0.70;;;25.40;43.60;;;;;;5022165;28;20813;-56
2022/07/30 10:13:32;;;;;;;1.02;0.70;;;25.40;43.50;;;;;;5010716;28;20123;-56
2022/07/30 10:15:59;;;;;;;1.50;0.80;;;25.40;43.70;;;;;;5009362;28;20034;-53
2022/07/30 10:18:26;;;;;;;2.50;0.73;;;25.40;43.90;;;;;;5009990;28;20045;-56
2022/07/30 10:21:12;;;;;;;1.40;0.70;;;25.40;43.90;;;;;;5002449;28;20044;-55
2022/07/30 10:24:05;;;;;;;1.23;0.65;;;25.40;43.90;;;;;;5007950;28;20080;-53
2022/07/30 10:26:57;;;;;;;2.00;1.00;;;25.40;43.80;;;;;;4986414;28;20080;-55
2022/07/30 10:29:42;;;;;;;1.92;0.90;;;25.40;44.40;;;;;;5008989;28;20123;-54
2022/07/30 10:32:08;;;;;;;0.75;0.70;;;25.40;43.60;;;;;;5009405;28;20084;-57
2022/07/30 10:34:34;;;;;;;2.75;0.82;;;25.40;43.40;;;;;;5011641;28;20033;-54
2022/07/30 10:37:04;;;;;;;1.13;0.60;;;25.40;43.10;;;;;;5029144;28;20029;-57
2022/07/30 10:39:36;;;;;;;1.38;0.70;;;25.40;42.80;;;;;;5033797;28;20029;-56
2022/07/30 10:42:40;;;;;;;0.90;0.63;;;25.40;42.60;;;;;;5014656;28;20492;-58
2022/07/30 10:45:18;;;;;;;1.58;0.70;;;25.40;42.40;;;;;;5014396;28;20049;-53
2022/07/30 10:47:46;;;;;;;1.25;0.85;;;25.40;42.20;;;;;;5014391;28;20041;-54
2022/07/30 10:50:14;;;;;;;1.83;0.70;;;25.40;42.10;;;;;;5015192;28;20045;-55
2022/07/30 10:52:50;;;;;;;1.05;0.68;;;25.50;42.10;;;;;;5008491;28;20026;-56
2022/07/30 10:55:34;;;;;;;1.98;0.80;;;25.40;42.00;;;;;;5015451;28;20046;-56
2022/07/30 10:58:11;;;;;;;1.05;0.60;;;25.40;41.90;;;;;;5015032;28;20018;-51
2022/07/30 11:00:52;;;;;;;1.85;0.85;;;25.50;42.00;;;;;;5014319;28;20450;-57
2022/07/30 11:03:23;;;;;;;1.65;0.68;;;25.50;41.90;;;;;;5015528;28;20025;-51
2022/07/30 11:05:51;;;;;;;0.70;0.60;;;25.40;41.80;;;;;;5011171;28;20465;-55
2022/07/30 11:08:37;;;;;;;1.10;0.57;;;25.50;42.00;;;;;;5000820;28;20031;-51
2022/07/30 11:11:30;;;;;;;1.40;0.60;;;25.50;41.70;;;;;;5011490;28;20040;-55
2022/07/30 11:14:01;;;;;;;1.20;0.70;;;25.50;41.70;;;;;;4995173;28;20033;-56
2022/07/30 11:16:32;;;;;;;1.73;0.70;;;25.50;41.60;;;;;;5008564;28;20037;-52
2022/07/30 11:19:16;;;;;;;0.95;0.60;;;25.50;41.50;;;;;;5006910;28;20404;-56
2022/07/30 11:21:43;;;;;;;1.15;0.60;;;25.50;41.70;;;;;;5008883;28;20048;-54
2022/07/30 11:24:45;;;;;;;0.90;0.80;;;25.50;41.80;;;;;;5010777;28;20042;-53
2022/07/30 11:27:34;;;;;;;0.60;0.60;;;25.50;42.00;;;;;;5009944;28;20048;-56
2022/07/30 11:30:01;;;;;;;1.98;0.75;;;25.60;42.30;;;;;;5010173;28;20062;-55
2022/07/30 11:32:30;;;;;;;0.60;0.50;;;25.60;42.50;;;;;;5008049;28;20091;-52
2022/07/30 11:35:34;;;;;;;1.00;0.60;;;25.60;42.70;;;;;;5008455;28;20517;-52
2022/07/30 11:38:14;;;;;;;1.63;0.80;;;25.60;42.90;;;;;;4947802;28;20042;-56
2022/07/30 11:40:48;;;;;;;1.65;0.82;;;25.60;42.90;;;;;;4947815;28;20470;-52
2022/07/30 11:43:31;;;;;;;2.45;0.65;;;25.60;42.90;;;;;;4988316;28;20042;-53
2022/07/30 11:46:21;;;;;;;1.13;0.60;;;25.60;42.80;;;;;;5009910;28;20053;-51
2022/07/30 11:49:01;;;;;;;1.20;0.68;;;25.60;42.80;;;;;;5003492;28;20092;-55
2022/07/30 11:51:28;;;;;;;1.17;0.68;;;25.60;42.70;;;;;;5006639;28;20443;-52
2022/07/30 11:54:07;;;;;;;1.25;0.70;;;25.60;42.70;;;;;;5013786;28;20030;-56
2022/07/30 11:56:33;;;;;;;1.23;0.57;;;25.60;42.70;;;;;;5011355;28;20121;-53
2022/07/30 11:59:01;;;;;;;1.27;0.60;;;25.60;42.80;;;;;;5014380;28;20037;-56
2022/07/30 12:01:27;;;;;;;1.98;0.60;;;25.60;42.80;;;;;;5013483;28;20057;-54
2022/07/30 12:03:54;;;;;;;1.08;0.63;;;25.60;42.90;;;;;;5010142;28;20033;-54
2022/07/30 12:06:27;;;;;;;0.85;0.70;;;25.60;42.80;;;;;;5009593;28;20170;-53
2022/07/30 12:08:53;;;;;;;1.65;0.90;;;25.60;42.80;;;;;;5011280;28;20091;-54
2022/07/30 12:11:22;;;;;;;0.88;0.50;;;25.60;42.80;;;;;;5012817;28;20034;-54
2022/07/30 12:13:58;;;;;;;0.75;0.50;;;25.60;42.80;;;;;;5012555;28;20045;-59
2022/07/30 12:16:26;;;;;;;1.08;0.60;;;25.60;42.80;;;;;;5010091;28;20503;-52
2022/07/30 12:18:52;;;;;;;0.60;0.60;;;25.70;42.90;;;;;;5011206;28;20027;-54
2022/07/30 12:21:19;;;;;;;1.50;0.80;;;25.60;42.80;;;;;;5011233;28;20076;-55
2022/07/30 12:23:55;;;;;;;0.98;0.70;;;25.60;42.80;;;;;;5014267;28;20172;-53
2022/07/30 12:26:23;;;;;;;3.00;0.60;;;25.70;42.90;;;;;;5001106;28;20072;-56
2022/07/30 12:28:49;;;;;;;2.50;0.70;;;25.70;43.10;;;;;;5013760;28;20038;-57
2022/07/30 12:31:16;;;;;;;1.25;0.65;;;25.70;43.20;;;;;;5022580;28;20345;-58
2022/07/30 12:33:42;;;;;;;2.70;0.88;;;25.70;43.40;;;;;;5014677;28;20033;-57
2022/07/30 12:36:09;;;;;;;1.45;0.60;;;25.80;43.60;;;;;;5011524;28;21100;-64
2022/07/30 12:38:47;;;;;;;2.50;0.90;;;25.80;43.70;;;;;;5013334;28;20036;-64
2022/07/30 12:41:13;;;;;;;3.03;0.63;;;25.80;43.80;;;;;;5006044;28;20472;-61
2022/07/30 12:43:54;;;;;;;1.63;0.68;;;25.90;44.20;;;;;;5012380;28;20025;-62
2022/07/30 12:46:22;;;;;;;1.10;0.75;;;26.00;44.30;;;;;;5010682;28;20342;-62
2022/07/30 12:48:49;;;;;;;1.45;0.80;;;26.00;44.20;;;;;;5011400;28;20034;-63
2022/07/30 12:51:14;;;;;;;1.17;0.85;;;26.10;44.10;;;;;;5013414;28;20022;-57
2022/07/30 12:53:40;;;;;;;2.45;1.00;;;26.20;44.00;;;;;;5011483;28;20103;-60
2022/07/30 12:56:13;;;;;;;2.30;1.02;;;26.30;44.00;;;;;;5011017;28;20050;-60
2022/07/30 12:58:40;;;;;;;0.70;0.70;;;26.40;44.00;;;;;;5006438;28;20149;-60
2022/07/30 13:01:06;;;;;;;1.60;0.70;;;26.40;43.90;;;;;;5012422;28;20030;-61
2022/07/30 13:03:42;;;;;;;1.33;0.77;;;26.50;43.80;;;;;;5010848;28;20068;-55
2022/07/30 13:06:17;;;;;;;1.33;0.70;;;26.60;43.70;;;;;;5012567;28;20115;-60
2022/07/30 13:08:56;;;;;;;1.45;0.80;;;26.70;43.50;;;;;;5008542;28;20049;-58
2022/07/30 13:11:43;;;;;;;1.27;0.70;;;26.80;43.30;;;;;;5009350;28;20429;-56
2022/07/30 13:14:11;;;;;;;0.57;0.57;;;26.90;43.00;;;;;;5013116;28;20021;-59
2022/07/30 13:16:37;;;;;;;1.48;0.70;;;27.00;42.80;;;;;;5010932;28;20069;-56